Time,TemperatureF,DewpointF,PressureIn,WindDirection,WindDirectionDegrees,WindSpeedMPH,WindSpeedGustMPH,Humidity,HourlyPrecipIn,Conditions,Clouds,dailyrainin,SolarRadiationWatts/m^2,SoftwareType,DateUTC
2013-03-30 00:02:00,36.9,35.8,29.74,NNE,22,3.0,5.0,96,0.00,RA,RA,0.00,0.0,WeatherDisplay:10.37,2013-03-29 23:02:00,
2013-03-30 00:07:00,36.9,35.8,29.74,NNE,25,2.0,5.0,96,0.00,RA,RA,0.00,0.0,WeatherDisplay:10.37,2013-03-29 23:07:00,
2013-03-30 00:17:00,36.9,35.8,29.74,NNE,23,2.0,6.0,96,0.00,CLR,CLR,0.00,0.0,WeatherDisplay:10.37,2013-03-29 23:17:00,
2013-03-30 00:27:00,36.9,35.8,29.74,NNE,23,2.0,5.0,96,0.00,CLR,CLR,0.00,0.0,WeatherDisplay:10.37,2013-03-29 23:27:00,
2013-03-30 00:32:00,36.9,35.8,29.74,NNE,21,3.0,6.0,96,0.00,CLR,CLR,0.00,0.0,WeatherDisplay:10.37,2013-03-29 23:32:00,
2013-03-30 00:37:00,36.9,35.8,29.74,NNE,22,3.0,6.0,96,0.00,CLR,CLR,0.00,0.0,WeatherDisplay:10.37,2013-03-29 23:37:00,
2013-03-30 00:42:00,36.9,35.8,29.74,NNE,23,2.0,6.0,96,0.00,CLR,CLR,0.00,0.0,WeatherDisplay:10.37,2013-03-29 23:42:00,
2013-03-30 00:47:00,36.9,35.8,29.71,NNE,24,3.0,6.0,96,0.00,CLR,CLR,0.00,0.0,WeatherDisplay:10.37,2013-03-29 23:47:00,
2013-03-30 01:02:00,36.9,36.1,29.71,NE,41,1.0,3.0,97,0.00,CLR,CLR,0.00,0.0,WeatherDisplay:10.37,2013-03-30 00:02:00,
2013-03-30 01:12:00,36.9,36.1,29.71,ENE,72,1.0,3.0,97,0.00,RA,RA,0.01,0.0,WeatherDisplay:10.37,2013-03-30 00:12:00,
2013-03-30 01:17:00,36.9,36.1,29.71,ENE,71,1.0,3.0,97,0.00,RA,RA,0.01,0.0,WeatherDisplay:10.37,2013-03-30 00:17:00,
2013-03-30 01:22:00,36.9,36.1,29.71,ENE,62,1.0,2.0,97,0.00,CLR,CLR,0.01,0.0,WeatherDisplay:10.37,2013-03-30 00:22:00,
2013-03-30 01:32:00,36.9,36.1,29.71,NNE,28,1.0,2.0,97,0.00,CLR,CLR,0.01,0.0,WeatherDisplay:10.37,2013-03-30 00:32:00,
2013-03-30 01:37:00,36.9,36.1,29.71,NNE,33,1.0,2.0,97,0.00,CLR,CLR,0.01,0.0,WeatherDisplay:10.37,2013-03-30 00:37:00,
2013-03-30 01:47:00,37.0,36.3,29.71,ENE,68,0.0,1.0,97,0.00,RA,RA,0.01,0.0,WeatherDisplay:10.37,2013-03-30 00:47:00,
2013-03-30 01:52:00,37.0,36.3,29.71,East,80,0.0,1.0,97,0.01,RA,RA,0.02,0.0,WeatherDisplay:10.37,2013-03-30 00:52:00,
2013-03-30 01:57:00,37.0,36.3,29.71,ENE,59,0.0,1.0,97,0.01,RA,RA,0.03,0.0,WeatherDisplay:10.37,2013-03-30 00:57:00,
2013-03-30 02:02:00,37.0,36.5,29.71,NE,45,1.0,3.0,98,0.02,RA,RA,0.05,0.0,WeatherDisplay:10.37,2013-03-30 01:02:00,
2013-03-30 02:12:00,37.0,36.5,29.71,NE,50,1.0,4.0,98,0.02,RA,RA,0.08,0.0,WeatherDisplay:10.37,2013-03-30 01:12:00,
2013-03-30 02:17:00,37.0,36.5,29.68,ENE,61,2.0,3.0,98,0.01,RA,RA,0.09,0.0,WeatherDisplay:10.37,2013-03-30 01:17:00,
2013-03-30 02:27:00,37.2,36.7,29.68,ENE,58,1.0,2.0,98,0.01,RA,RA,0.11,0.0,WeatherDisplay:10.37,2013-03-30 01:27:00,
2013-03-30 02:32:00,37.2,36.7,29.68,ENE,61,1.0,3.0,98,0.01,RA,RA,0.12,0.0,WeatherDisplay:10.37,2013-03-30 01:32:00,
2013-03-30 02:42:00,37.4,36.6,29.68,NE,54,2.0,3.0,97,0.01,RA,RA,0.14,0.0,WeatherDisplay:10.37,2013-03-30 01:42:00,
2013-03-30 02:47:00,37.4,36.6,29.68,NNE,19,3.0,5.0,97,0.00,RA,RA,0.14,0.0,WeatherDisplay:10.37,2013-03-30 01:47:00,
2013-03-30 02:52:00,37.4,36.6,29.68,NNE,21,2.0,4.0,97,0.00,RA,RA,0.15,0.0,WeatherDisplay:10.37,2013-03-30 01:52:00,
2013-03-30 02:57:00,37.4,36.6,29.68,NNE,22,2.0,4.0,97,0.00,RA,RA,0.15,0.0,WeatherDisplay:10.37,2013-03-30 01:57:00,
2013-03-30 03:07:00,37.4,36.6,29.68,NNE,22,3.0,5.0,97,0.01,RA,RA,0.16,0.0,WeatherDisplay:10.37,2013-03-30 02:07:00,
2013-03-30 03:12:00,37.4,36.6,29.68,NNE,22,3.0,5.0,97,0.01,RA,RA,0.17,0.0,WeatherDisplay:10.37,2013-03-30 02:12:00,
2013-03-30 03:22:00,37.4,36.6,29.68,NNE,22,1.0,3.0,97,0.00,RA,RA,0.17,0.0,WeatherDisplay:10.37,2013-03-30 02:22:00,
2013-03-30 03:27:00,37.4,36.6,29.68,NNE,22,1.0,3.0,97,0.00,RA,RA,0.17,0.0,WeatherDisplay:10.37,2013-03-30 02:27:00,
2013-03-30 03:37:00,37.4,36.9,29.68,NE,34,1.0,3.0,98,0.00,RA,RA,0.18,0.0,WeatherDisplay:10.37,2013-03-30 02:37:00,
2013-03-30 03:42:00,37.4,36.9,29.68,NE,35,2.0,3.0,98,0.00,RA,RA,0.19,0.0,WeatherDisplay:10.37,2013-03-30 02:42:00,
2013-03-30 03:47:00,37.4,36.9,29.68,NE,36,1.0,3.0,98,0.00,RA,RA,0.19,0.0,WeatherDisplay:10.37,2013-03-30 02:47:00,
2013-03-30 03:52:00,37.4,36.9,29.68,NE,47,1.0,2.0,98,0.00,RA,RA,0.19,0.0,WeatherDisplay:10.37,2013-03-30 02:52:00,
2013-03-30 04:02:00,37.4,36.9,29.68,NNE,21,0.0,2.0,98,0.00,RA,RA,0.20,0.0,WeatherDisplay:10.37,2013-03-30 03:02:00,
2013-03-30 04:07:00,37.4,36.9,29.68,NNE,20,1.0,2.0,98,0.00,RA,RA,0.20,0.0,WeatherDisplay:10.37,2013-03-30 03:07:00,
2013-03-30 04:17:00,37.6,37.1,29.68,NW,319,0.0,3.0,98,0.01,RA,RA,0.22,0.0,WeatherDisplay:10.37,2013-03-30 03:17:00,
2013-03-30 04:22:00,37.6,37.1,29.68,NW,323,1.0,2.0,98,0.01,RA,RA,0.23,0.0,WeatherDisplay:10.37,2013-03-30 03:22:00,
2013-03-30 04:32:00,37.6,37.1,29.68,NNE,23,2.0,5.0,98,0.01,RA,RA,0.26,0.0,WeatherDisplay:10.37,2013-03-30 03:32:00,
2013-03-30 04:37:00,37.6,37.1,29.68,NNE,26,1.0,3.0,98,0.01,RA,RA,0.27,0.0,WeatherDisplay:10.37,2013-03-30 03:37:00,
2013-03-30 04:47:00,37.6,37.1,29.68,NE,54,2.0,5.0,98,0.00,RA,RA,0.28,0.0,WeatherDisplay:10.37,2013-03-30 03:47:00,
2013-03-30 04:52:00,37.6,37.1,29.68,NE,36,2.0,4.0,98,0.01,RA,RA,0.29,0.0,WeatherDisplay:10.37,2013-03-30 03:52:00,
2013-03-30 04:57:00,37.6,37.1,29.68,North,7,2.0,3.0,98,0.01,RA,RA,0.30,0.0,WeatherDisplay:10.37,2013-03-30 03:57:00,
2013-03-30 05:02:00,37.6,37.1,29.68,NNW,336,1.0,3.0,98,0.00,RA,RA,0.30,0.0,WeatherDisplay:10.37,2013-03-30 04:02:00,
2013-03-30 05:07:00,37.6,37.1,29.68,NW,325,2.0,3.0,98,0.00,RA,RA,0.31,0.0,WeatherDisplay:10.37,2013-03-30 04:07:00,
2013-03-30 05:12:00,37.6,37.1,29.68,NNW,338,1.0,3.0,98,0.00,RA,RA,0.31,0.0,WeatherDisplay:10.37,2013-03-30 04:12:00,
2013-03-30 05:17:00,37.6,37.1,29.68,North,1,2.0,4.0,98,0.01,RA,RA,0.32,0.0,WeatherDisplay:10.37,2013-03-30 04:17:00,
2013-03-30 05:22:00,37.6,37.1,29.68,NNE,20,3.0,5.0,98,0.01,RA,RA,0.34,0.0,WeatherDisplay:10.37,2013-03-30 04:22:00,
2013-03-30 05:27:00,37.6,37.1,29.68,NNE,16,3.0,4.0,98,0.00,RA,RA,0.34,0.0,WeatherDisplay:10.37,2013-03-30 04:27:00,
2013-03-30 05:32:00,37.4,36.9,29.68,NNE,13,2.0,3.0,98,0.00,RA,RA,0.34,0.0,WeatherDisplay:10.37,2013-03-30 04:32:00,
2013-03-30 05:37:00,37.4,36.9,29.68,NNE,19,2.0,3.0,98,0.01,RA,RA,0.35,0.0,WeatherDisplay:10.37,2013-03-30 04:37:00,
2013-03-30 05:47:00,37.4,36.9,29.68,NNE,16,3.0,5.0,98,0.00,RA,RA,0.35,0.0,WeatherDisplay:10.37,2013-03-30 04:47:00,
2013-03-30 05:52:00,37.4,36.9,29.68,NNE,19,3.0,5.0,98,0.00,RA,RA,0.36,0.0,WeatherDisplay:10.37,2013-03-30 04:52:00,
2013-03-30 06:02:00,37.2,36.7,29.68,NNE,27,2.0,3.0,98,0.00,RA,RA,0.37,0.0,WeatherDisplay:10.37,2013-03-30 05:02:00,
2013-03-30 06:07:00,37.0,36.5,29.68,NNE,26,2.0,4.0,98,0.01,RA,RA,0.37,0.0,WeatherDisplay:10.37,2013-03-30 05:07:00,
2013-03-30 06:12:00,37.0,36.5,29.68,NNE,26,1.0,3.0,98,0.00,RA,RA,0.38,0.0,WeatherDisplay:10.37,2013-03-30 05:12:00,
2013-03-30 06:17:00,37.0,36.5,29.68,NNE,23,3.0,6.0,98,0.00,RA,RA,0.38,0.0,WeatherDisplay:10.37,2013-03-30 05:17:00,
2013-03-30 06:22:00,37.0,36.5,29.68,NNE,22,3.0,6.0,98,0.01,RA,RA,0.39,0.0,WeatherDisplay:10.37,2013-03-30 05:22:00,
2013-03-30 06:27:00,37.0,36.5,29.68,NNE,20,2.0,5.0,98,0.01,RA,RA,0.40,0.0,WeatherDisplay:10.37,2013-03-30 05:27:00,
2013-03-30 06:37:00,37.0,36.5,29.68,NNE,23,3.0,5.0,98,0.00,RA,RA,0.41,0.0,WeatherDisplay:10.37,2013-03-30 05:37:00,
2013-03-30 06:47:00,37.2,36.7,29.68,NNE,24,2.0,4.0,98,0.00,,,0.41,0.0,WeatherDisplay:10.37,2013-03-30 05:47:00,
2013-03-30 06:57:00,37.2,36.7,29.68,NNE,29,1.0,3.0,98,0.00,RA,RA,0.41,0.0,WeatherDisplay:10.37,2013-03-30 05:57:00,
2013-03-30 07:02:00,37.4,36.9,29.68,NNE,24,3.0,5.0,98,0.00,OVC,OVC,0.41,0.0,WeatherDisplay:10.37,2013-03-30 06:02:00,
2013-03-30 07:12:00,37.4,36.9,29.68,NNE,20,2.0,4.0,98,0.00,RA,RA,0.41,0.0,WeatherDisplay:10.37,2013-03-30 06:12:00,
2013-03-30 07:17:00,37.6,37.1,29.65,NNE,22,2.0,4.0,98,0.00,RA,RA,0.41,0.0,WeatherDisplay:10.37,2013-03-30 06:17:00,
2013-03-30 07:27:00,37.8,37.2,29.65,NNE,24,1.0,4.0,98,0.00,OVC,OVC,0.41,0.0,WeatherDisplay:10.37,2013-03-30 06:27:00,
2013-03-30 07:32:00,37.9,37.4,29.68,NE,35,1.0,2.0,98,0.00,RA,RA,0.42,0.0,WeatherDisplay:10.37,2013-03-30 06:32:00,
2013-03-30 07:37:00,37.9,37.4,29.68,NE,48,0.0,2.0,98,0.00,RA,RA,0.42,0.0,WeatherDisplay:10.37,2013-03-30 06:37:00,
2013-03-30 07:47:00,38.3,37.8,29.68,ENE,62,0.0,2.0,98,0.00,RA,RA,0.42,0.0,WeatherDisplay:10.37,2013-03-30 06:47:00,
2013-03-30 07:52:00,38.5,38.0,29.68,NE,47,1.0,3.0,98,0.00,RA,RA,0.43,0.0,WeatherDisplay:10.37,2013-03-30 06:52:00,
2013-03-30 07:57:00,38.5,38.0,29.68,NNE,33,2.0,5.0,98,0.00,RA,RA,0.43,0.0,WeatherDisplay:10.37,2013-03-30 06:57:00,
2013-03-30 08:07:00,38.8,38.3,29.68,NNE,31,0.0,2.0,98,0.00,RA,RA,0.44,0.0,WeatherDisplay:10.37,2013-03-30 07:07:00,
2013-03-30 08:12:00,38.8,38.3,29.68,North,7,1.0,2.0,98,0.00,RA,RA,0.44,0.0,WeatherDisplay:10.37,2013-03-30 07:12:00,
2013-03-30 08:17:00,39.0,38.5,29.68,NNW,344,2.0,3.0,98,0.00,RA,RA,0.44,0.0,WeatherDisplay:10.37,2013-03-30 07:17:00,
2013-03-30 08:22:00,39.0,38.5,29.68,North,354,2.0,3.0,98,0.00,RA,RA,0.45,0.0,WeatherDisplay:10.37,2013-03-30 07:22:00,
2013-03-30 08:27:00,39.2,38.7,29.68,NNE,12,1.0,3.0,98,0.00,RA,RA,0.45,0.0,WeatherDisplay:10.37,2013-03-30 07:27:00,
2013-03-30 08:32:00,39.2,38.7,29.68,NNE,21,1.0,3.0,98,0.00,RA,RA,0.45,0.0,WeatherDisplay:10.37,2013-03-30 07:32:00,
2013-03-30 08:37:00,39.4,38.9,29.68,NNE,17,1.0,3.0,98,0.00,OVC,OVC,0.45,0.0,WeatherDisplay:10.37,2013-03-30 07:37:00,
2013-03-30 08:42:00,39.4,38.9,29.68,NNE,13,2.0,5.0,98,0.00,RA,RA,0.46,0.0,WeatherDisplay:10.37,2013-03-30 07:42:00,
2013-03-30 08:47:00,39.6,39.0,29.68,NNE,18,5.0,6.0,98,0.00,RA,RA,0.46,0.0,WeatherDisplay:10.37,2013-03-30 07:47:00,
2013-03-30 08:52:00,39.7,39.2,29.68,NNE,22,2.0,5.0,98,0.00,CLR,CLR,0.46,0.0,WeatherDisplay:10.37,2013-03-30 07:52:00,
2013-03-30 08:57:00,39.7,39.2,29.68,NNE,20,2.0,5.0,98,0.00,OVC,OVC,0.46,0.0,WeatherDisplay:10.37,2013-03-30 07:57:00,
2013-03-30 09:07:00,39.9,39.4,29.68,NNE,21,2.0,5.0,98,0.00,OVC,OVC,0.46,0.0,WeatherDisplay:10.37,2013-03-30 08:07:00,
2013-03-30 09:12:00,39.9,39.4,29.68,NNE,12,2.0,5.0,98,0.00,OVC,OVC,0.46,0.0,WeatherDisplay:10.37,2013-03-30 08:12:00,
2013-03-30 09:17:00,40.1,39.6,29.68,North,8,3.0,5.0,98,0.00,OVC,OVC,0.46,0.0,WeatherDisplay:10.37,2013-03-30 08:17:00,
2013-03-30 09:22:00,40.1,39.6,29.68,NNE,27,2.0,5.0,98,0.00,OVC,OVC,0.46,0.0,WeatherDisplay:10.37,2013-03-30 08:22:00,
2013-03-30 09:27:00,40.1,39.6,29.68,NNE,28,5.0,6.0,98,0.00,OVC,OVC,0.46,0.0,WeatherDisplay:10.37,2013-03-30 08:27:00,
2013-03-30 09:37:00,40.4,39.9,29.68,NNE,33,3.0,6.0,98,0.00,OVC,OVC,0.46,0.0,WeatherDisplay:10.37,2013-03-30 08:37:00,
2013-03-30 09:42:00,40.6,40.1,29.68,NE,41,2.0,6.0,98,0.00,OVC,OVC,0.46,0.0,WeatherDisplay:10.37,2013-03-30 08:42:00,
2013-03-30 09:47:00,40.8,40.3,29.68,NE,34,3.0,5.0,98,0.00,OVC,OVC,0.46,0.0,WeatherDisplay:10.37,2013-03-30 08:47:00,
2013-03-30 09:57:00,41.1,40.5,29.68,NE,48,2.0,5.0,98,0.00,OVC,OVC,0.46,0.0,WeatherDisplay:10.37,2013-03-30 08:57:00,
2013-03-30 10:07:00,41.5,41.0,29.68,NE,34,1.0,6.0,98,0.00,OVC,OVC,0.46,0.0,WeatherDisplay:10.37,2013-03-30 09:07:00,
2013-03-30 10:17:00,41.9,41.4,29.68,NNE,18,1.0,5.0,98,0.00,OVC,OVC,0.46,0.0,WeatherDisplay:10.37,2013-03-30 09:17:00,
2013-03-30 10:27:00,42.1,41.6,29.68,NE,40,1.0,2.0,98,0.00,OVC,OVC,0.46,0.0,WeatherDisplay:10.37,2013-03-30 09:27:00,
2013-03-30 10:37:00,42.1,41.6,29.68,North,9,2.0,4.0,98,0.00,OVC,OVC,0.46,0.0,WeatherDisplay:10.37,2013-03-30 09:37:00,
2013-03-30 10:47:00,42.4,41.9,29.68,NNE,24,2.0,4.0,98,0.00,OVC,OVC,0.46,0.0,WeatherDisplay:10.37,2013-03-30 09:47:00,
2013-03-30 10:52:00,42.4,41.9,29.68,NE,55,1.0,3.0,98,0.00,OVC,OVC,0.46,0.0,WeatherDisplay:10.37,2013-03-30 09:52:00,
2013-03-30 11:02:00,42.8,42.3,29.68,NNE,21,2.0,5.0,98,0.00,OVC,OVC,0.46,0.0,WeatherDisplay:10.37,2013-03-30 10:02:00,
2013-03-30 11:12:00,43.0,42.5,29.68,NE,42,1.0,5.0,98,0.00,OVC,OVC,0.46,0.0,WeatherDisplay:10.37,2013-03-30 10:12:00,
2013-03-30 11:17:00,43.2,42.6,29.68,NE,41,0.0,2.0,98,0.00,OVC,OVC,0.46,0.0,WeatherDisplay:10.37,2013-03-30 10:17:00,
2013-03-30 11:22:00,43.3,42.7,29.68,NNE,28,0.0,1.0,98,0.00,OVC,OVC,0.46,0.0,WeatherDisplay:10.37,2013-03-30 10:22:00,
2013-03-30 11:32:00,43.6,43.1,29.68,NNE,33,1.0,2.0,98,0.00,OVC,OVC,0.46,0.0,WeatherDisplay:10.37,2013-03-30 10:32:00,
2013-03-30 11:37:00,44.0,43.5,29.68,NE,51,1.0,3.0,98,0.00,OVC,OVC,0.46,0.0,WeatherDisplay:10.37,2013-03-30 10:37:00,
2013-03-30 11:47:00,44.2,43.7,29.68,NE,53,2.0,3.0,98,0.00,OVC,OVC,0.46,0.0,WeatherDisplay:10.37,2013-03-30 10:47:00,
2013-03-30 11:52:00,44.6,44.1,29.68,NNE,24,3.0,5.0,98,0.00,OVC,OVC,0.46,0.0,WeatherDisplay:10.37,2013-03-30 10:52:00,
2013-03-30 11:57:00,44.8,44.3,29.68,North,360,3.0,5.0,98,0.00,OVC,OVC,0.46,0.0,WeatherDisplay:10.37,2013-03-30 10:57:00,
2013-03-30 12:02:00,45.0,44.4,29.71,North,357,2.0,4.0,98,0.00,OVC,OVC,0.46,0.0,WeatherDisplay:10.37,2013-03-30 11:02:00,
2013-03-30 12:07:00,45.1,44.6,29.71,NNE,31,1.0,5.0,98,0.00,OVC,OVC,0.46,0.0,WeatherDisplay:10.37,2013-03-30 11:07:00,
2013-03-30 12:17:00,45.3,44.8,29.68,North,359,1.0,3.0,98,0.00,OVC,OVC,0.46,0.0,WeatherDisplay:10.37,2013-03-30 11:17:00,
2013-03-30 12:22:00,45.5,45.0,29.68,North,8,3.0,5.0,98,0.00,OVC,OVC,0.46,0.0,WeatherDisplay:10.37,2013-03-30 11:22:00,
2013-03-30 12:27:00,45.5,45.0,29.68,NNE,18,0.0,2.0,98,0.00,OVC,OVC,0.46,0.0,WeatherDisplay:10.37,2013-03-30 11:27:00,
2013-03-30 12:32:00,45.9,45.3,29.68,NNE,13,2.0,3.0,98,0.00,OVC,OVC,0.46,0.0,WeatherDisplay:10.37,2013-03-30 11:32:00,
2013-03-30 12:37:00,45.9,45.3,29.68,NNE,21,1.0,4.0,98,0.00,OVC,OVC,0.46,0.0,WeatherDisplay:10.37,2013-03-30 11:37:00,
2013-03-30 12:42:00,46.0,45.5,29.68,NNE,17,2.0,6.0,98,0.00,OVC,OVC,0.46,0.0,WeatherDisplay:10.37,2013-03-30 11:42:00,
2013-03-30 12:47:00,46.0,45.5,29.68,NNE,29,2.0,5.0,98,0.00,OVC,OVC,0.46,0.0,WeatherDisplay:10.37,2013-03-30 11:47:00,
2013-03-30 12:52:00,46.2,45.7,29.68,NE,46,1.0,4.0,98,0.00,OVC,OVC,0.46,0.0,WeatherDisplay:10.37,2013-03-30 11:52:00,
2013-03-30 13:02:00,46.6,46.0,29.68,ENE,60,2.0,5.0,98,0.00,OVC,OVC,0.46,0.0,WeatherDisplay:10.37,2013-03-30 12:02:00,
2013-03-30 13:07:00,46.8,46.2,29.68,NE,42,2.0,4.0,98,0.00,OVC,OVC,0.46,0.0,WeatherDisplay:10.37,2013-03-30 12:07:00,
2013-03-30 13:12:00,47.1,46.5,29.68,NNE,21,3.0,6.0,98,0.00,OVC,OVC,0.46,0.0,WeatherDisplay:10.37,2013-03-30 12:12:00,
2013-03-30 13:17:00,47.3,46.8,29.68,ENE,57,2.0,6.0,98,0.00,OVC,OVC,0.46,0.0,WeatherDisplay:10.37,2013-03-30 12:17:00,
2013-03-30 13:27:00,47.5,46.9,29.68,NE,42,2.0,4.0,98,0.00,OVC,OVC,0.46,0.0,WeatherDisplay:10.37,2013-03-30 12:27:00,
2013-03-30 13:37:00,47.5,46.7,29.65,NE,41,2.0,5.0,97,0.00,OVC,OVC,0.46,0.0,WeatherDisplay:10.37,2013-03-30 12:37:00,
2013-03-30 13:47:00,47.7,46.6,29.68,NNE,30,2.0,5.0,96,0.00,OVC,OVC,0.46,0.0,WeatherDisplay:10.37,2013-03-30 12:47:00,
2013-03-30 13:57:00,47.8,46.8,29.68,NE,43,2.0,5.0,96,0.00,OVC,OVC,0.46,0.0,WeatherDisplay:10.37,2013-03-30 12:57:00,
2013-03-30 14:02:00,47.8,46.8,29.68,NE,48,1.0,5.0,96,0.00,OVC,OVC,0.46,0.0,WeatherDisplay:10.37,2013-03-30 13:02:00,
2013-03-30 14:07:00,48.0,46.9,29.68,NE,50,2.0,4.0,96,0.00,OVC,OVC,0.46,0.0,WeatherDisplay:10.37,2013-03-30 13:07:00,
2013-03-30 14:12:00,48.0,46.7,29.68,NE,40,2.0,5.0,95,0.00,OVC,OVC,0.46,0.0,WeatherDisplay:10.37,2013-03-30 13:12:00,
2013-03-30 14:17:00,48.1,46.8,29.68,NNE,30,2.0,5.0,95,0.00,OVC,OVC,0.46,0.0,WeatherDisplay:10.37,2013-03-30 13:17:00,
2013-03-30 14:27:00,48.2,46.6,29.68,NNE,26,1.0,4.0,94,0.00,OVC,OVC,0.46,0.0,WeatherDisplay:10.37,2013-03-30 13:27:00,
2013-03-30 14:32:00,48.2,46.6,29.65,NE,37,2.0,4.0,94,0.00,OVC,OVC,0.46,0.0,WeatherDisplay:10.37,2013-03-30 13:32:00,
2013-03-30 14:37:00,48.2,46.6,29.65,NE,48,1.0,3.0,94,0.00,OVC,OVC,0.46,0.0,WeatherDisplay:10.37,2013-03-30 13:37:00,
2013-03-30 14:47:00,48.2,46.3,29.68,ENE,57,2.0,5.0,93,0.00,OVC,OVC,0.46,0.0,WeatherDisplay:10.37,2013-03-30 13:47:00,
2013-03-30 14:52:00,48.2,46.3,29.68,NE,39,2.0,6.0,93,0.00,OVC,OVC,0.46,0.0,WeatherDisplay:10.37,2013-03-30 13:52:00,
2013-03-30 14:57:00,48.2,46.3,29.68,NE,51,3.0,5.0,93,0.00,OVC,OVC,0.46,0.0,WeatherDisplay:10.37,2013-03-30 13:57:00,
2013-03-30 15:02:00,48.4,46.4,29.68,ENE,65,2.0,6.0,93,0.00,OVC,OVC,0.46,0.0,WeatherDisplay:10.37,2013-03-30 14:02:00,
2013-03-30 15:12:00,48.4,46.2,29.68,NE,50,1.0,5.0,92,0.00,OVC,OVC,0.46,0.0,WeatherDisplay:10.37,2013-03-30 14:12:00,
2013-03-30 15:22:00,48.5,46.2,29.65,NNE,33,3.0,7.0,92,0.00,OVC,OVC,0.46,0.0,WeatherDisplay:10.37,2013-03-30 14:22:00,
2013-03-30 15:27:00,48.6,46.3,29.65,NNE,33,3.0,7.0,92,0.00,OVC,OVC,0.46,0.0,WeatherDisplay:10.37,2013-03-30 14:27:00,
2013-03-30 15:32:00,48.6,46.3,29.65,NE,42,2.0,7.0,92,0.00,OVC,OVC,0.46,0.0,WeatherDisplay:10.37,2013-03-30 14:32:00,
2013-03-30 15:37:00,48.6,46.3,29.65,ENE,59,3.0,6.0,92,0.00,OVC,OVC,0.46,0.0,WeatherDisplay:10.37,2013-03-30 14:37:00,
2013-03-30 15:47:00,48.7,46.2,29.65,NE,50,3.0,6.0,91,0.00,OVC,OVC,0.46,0.0,WeatherDisplay:10.37,2013-03-30 14:47:00,
2013-03-30 15:52:00,48.7,46.2,29.65,NNE,32,6.0,8.0,91,0.00,OVC,OVC,0.46,0.0,WeatherDisplay:10.37,2013-03-30 14:52:00,
2013-03-30 16:02:00,48.7,45.9,29.59,NE,48,3.0,7.0,90,0.00,OVC,OVC,0.46,0.0,WeatherDisplay:10.37,2013-03-30 15:02:00,
2013-03-30 16:12:00,48.6,45.5,29.59,NE,36,5.0,8.0,89,0.00,OVC,OVC,0.46,0.0,WeatherDisplay:10.37,2013-03-30 15:12:00,
2013-03-30 16:22:00,48.6,45.5,29.65,NE,34,3.0,7.0,89,0.00,OVC,OVC,0.46,0.0,WeatherDisplay:10.37,2013-03-30 15:22:00,
2013-03-30 16:27:00,48.6,45.5,29.65,NE,38,5.0,8.0,89,0.00,OVC,OVC,0.46,0.0,WeatherDisplay:10.37,2013-03-30 15:27:00,
2013-03-30 16:37:00,48.4,45.3,29.62,NNE,32,3.0,6.0,89,0.00,OVC,OVC,0.46,0.0,WeatherDisplay:10.37,2013-03-30 15:37:00,
2013-03-30 16:42:00,48.4,45.3,29.62,NE,49,5.0,7.0,89,0.00,OVC,OVC,0.46,0.0,WeatherDisplay:10.37,2013-03-30 15:42:00,
2013-03-30 16:47:00,48.4,45.3,29.62,ENE,62,3.0,6.0,89,0.00,OVC,OVC,0.46,0.0,WeatherDisplay:10.37,2013-03-30 15:47:00,
2013-03-30 16:57:00,48.4,45.6,29.62,NE,44,5.0,7.0,90,0.00,OVC,OVC,0.46,0.0,WeatherDisplay:10.37,2013-03-30 15:57:00,
2013-03-30 17:07:00,48.4,45.6,29.59,ENE,66,3.0,6.0,90,0.00,OVC,OVC,0.46,0.0,WeatherDisplay:10.37,2013-03-30 16:07:00,
2013-03-30 17:12:00,48.4,45.6,29.59,ENE,75,3.0,6.0,90,0.00,OVC,OVC,0.46,0.0,WeatherDisplay:10.37,2013-03-30 16:12:00,
2013-03-30 17:22:00,48.4,45.6,29.62,East,82,2.0,6.0,90,0.00,OVC,OVC,0.46,0.0,WeatherDisplay:10.37,2013-03-30 16:22:00,
2013-03-30 17:27:00,48.4,45.6,29.62,ENE,74,2.0,5.0,90,0.00,OVC,OVC,0.46,0.0,WeatherDisplay:10.37,2013-03-30 16:27:00,
2013-03-30 17:32:00,48.4,45.6,29.59,ENE,65,3.0,6.0,90,0.00,OVC,OVC,0.46,0.0,WeatherDisplay:10.37,2013-03-30 16:32:00,
2013-03-30 17:37:00,48.3,45.8,29.59,ENE,67,3.0,6.0,91,0.00,OVC,OVC,0.46,0.0,WeatherDisplay:10.37,2013-03-30 16:37:00,
2013-03-30 17:47:00,48.2,45.7,29.59,ENE,65,2.0,5.0,91,0.00,OVC,OVC,0.46,0.0,WeatherDisplay:10.37,2013-03-30 16:47:00,
2013-03-30 17:52:00,48.2,45.7,29.59,ENE,61,2.0,6.0,91,0.00,OVC,OVC,0.46,0.0,WeatherDisplay:10.37,2013-03-30 16:52:00,
2013-03-30 17:57:00,48.2,45.7,29.59,NE,55,2.0,4.0,91,0.00,OVC,OVC,0.46,0.0,WeatherDisplay:10.37,2013-03-30 16:57:00,
2013-03-30 18:07:00,48.0,45.5,29.62,NE,50,2.0,5.0,91,0.00,OVC,OVC,0.46,0.0,WeatherDisplay:10.37,2013-03-30 17:07:00,
2013-03-30 18:17:00,48.0,45.8,29.62,NE,47,0.0,3.0,92,0.00,OVC,OVC,0.46,0.0,WeatherDisplay:10.37,2013-03-30 17:17:00,
2013-03-30 18:27:00,48.0,45.8,29.62,ENE,63,1.0,3.0,92,0.00,OVC,OVC,0.46,0.0,WeatherDisplay:10.37,2013-03-30 17:27:00,
2013-03-30 18:37:00,48.0,45.8,29.62,ENE,72,1.0,2.0,92,0.00,CLR,CLR,0.46,0.0,WeatherDisplay:10.37,2013-03-30 17:37:00,
2013-03-30 18:42:00,48.0,45.8,29.62,ENE,59,2.0,4.0,92,0.01,RA,RA,0.46,0.0,WeatherDisplay:10.37,2013-03-30 17:42:00,
2013-03-30 18:47:00,48.0,45.8,29.62,NE,42,2.0,4.0,92,0.00,RA,RA,0.47,0.0,WeatherDisplay:10.37,2013-03-30 17:47:00,
2013-03-30 18:57:00,47.8,45.9,29.62,NE,40,3.0,5.0,93,0.00,RA,RA,0.47,0.0,WeatherDisplay:10.37,2013-03-30 17:57:00,
2013-03-30 19:02:00,47.8,45.9,29.59,NE,46,3.0,5.0,93,0.00,RA,RA,0.47,0.0,WeatherDisplay:10.37,2013-03-30 18:02:00,
2013-03-30 19:12:00,47.7,45.7,29.59,NNE,33,5.0,6.0,93,0.00,RA,RA,0.48,0.0,WeatherDisplay:10.37,2013-03-30 18:12:00,
2013-03-30 19:17:00,47.7,45.7,29.59,NE,36,3.0,7.0,93,0.01,RA,RA,0.49,0.0,WeatherDisplay:10.37,2013-03-30 18:17:00,
2013-03-30 19:27:00,47.7,45.7,29.59,NNE,33,3.0,7.0,93,0.01,RA,RA,0.50,0.0,WeatherDisplay:10.37,2013-03-30 18:27:00,
2013-03-30 19:37:00,47.5,45.6,29.59,NE,48,3.0,6.0,93,0.01,RA,RA,0.52,0.0,WeatherDisplay:10.37,2013-03-30 18:37:00,
2013-03-30 19:47:00,47.5,45.8,29.59,NE,54,2.0,6.0,94,0.00,RA,RA,0.52,0.0,WeatherDisplay:10.37,2013-03-30 18:47:00,
2013-03-30 19:57:00,47.5,45.8,29.59,ENE,64,3.0,6.0,94,0.01,RA,RA,0.53,0.0,WeatherDisplay:10.37,2013-03-30 18:57:00,
2013-03-30 20:02:00,47.5,45.8,29.59,ENE,64,3.0,5.0,94,0.01,RA,RA,0.54,0.0,WeatherDisplay:10.37,2013-03-30 19:02:00,
2013-03-30 20:17:00,47.7,46.3,29.56,ENE,72,5.0,6.0,95,0.01,RA,RA,0.57,0.0,WeatherDisplay:10.37,2013-03-30 19:17:00,
2013-03-30 20:22:00,47.8,46.5,29.56,ENE,61,5.0,6.0,95,0.02,RA,RA,0.59,0.0,WeatherDisplay:10.37,2013-03-30 19:22:00,
2013-03-30 20:27:00,47.8,46.8,29.56,ENE,60,3.0,8.0,96,0.01,RA,RA,0.59,0.0,WeatherDisplay:10.37,2013-03-30 19:27:00,
2013-03-30 20:37:00,47.8,46.8,29.56,ENE,59,5.0,9.0,96,0.01,RA,RA,0.61,0.0,WeatherDisplay:10.37,2013-03-30 19:37:00,
2013-03-30 20:42:00,47.8,46.8,29.56,ENE,63,3.0,7.0,96,0.00,RA,RA,0.61,0.0,WeatherDisplay:10.37,2013-03-30 19:42:00,
2013-03-30 20:52:00,47.8,46.8,29.56,ENE,72,3.0,6.0,96,0.01,RA,RA,0.62,0.0,WeatherDisplay:10.37,2013-03-30 19:52:00,
2013-03-30 20:57:00,47.8,47.0,29.56,East,80,3.0,7.0,97,0.00,RA,RA,0.62,0.0,WeatherDisplay:10.37,2013-03-30 19:57:00,
2013-03-30 21:07:00,47.8,47.0,29.56,East,80,3.0,8.0,97,0.00,RA,RA,0.63,0.0,WeatherDisplay:10.37,2013-03-30 20:07:00,
2013-03-30 21:17:00,48.0,47.2,29.59,East,100,5.0,6.0,97,0.00,RA,RA,0.64,0.0,WeatherDisplay:10.37,2013-03-30 20:17:00,
2013-03-30 21:22:00,48.0,47.2,29.59,East,92,5.0,7.0,97,0.00,RA,RA,0.64,0.0,WeatherDisplay:10.37,2013-03-30 20:22:00,
2013-03-30 21:32:00,48.2,47.4,29.56,East,84,5.0,9.0,97,0.00,RA,RA,0.65,0.0,WeatherDisplay:10.37,2013-03-30 20:32:00,
2013-03-30 21:37:00,48.2,47.7,29.56,ENE,78,3.0,7.0,98,0.00,RA,RA,0.65,0.0,WeatherDisplay:10.37,2013-03-30 20:37:00,
2013-03-30 21:42:00,48.4,47.8,29.56,ENE,77,3.0,6.0,98,0.01,RA,RA,0.66,0.0,WeatherDisplay:10.37,2013-03-30 20:42:00,
2013-03-30 21:52:00,48.6,48.0,29.56,East,92,5.0,7.0,98,0.01,RA,RA,0.68,0.0,WeatherDisplay:10.37,2013-03-30 20:52:00,
2013-03-30 21:57:00,48.6,48.1,29.56,East,88,5.0,9.0,98,0.01,RA,RA,0.68,0.0,WeatherDisplay:10.37,2013-03-30 20:57:00,
2013-03-30 22:02:00,48.7,48.2,29.56,East,85,5.0,9.0,98,0.00,RA,RA,0.69,0.0,WeatherDisplay:10.37,2013-03-30 21:02:00,
2013-03-30 22:07:00,48.7,48.2,29.56,East,92,5.0,7.0,98,0.00,RA,RA,0.69,0.0,WeatherDisplay:10.37,2013-03-30 21:07:00,
2013-03-30 22:12:00,48.7,48.2,29.56,East,100,5.0,9.0,98,0.01,RA,RA,0.70,0.0,WeatherDisplay:10.37,2013-03-30 21:12:00,
2013-03-30 22:17:00,48.7,48.2,29.56,East,91,3.0,7.0,98,0.00,RA,RA,0.70,0.0,WeatherDisplay:10.37,2013-03-30 21:17:00,
2013-03-30 22:27:00,48.7,48.2,29.56,ENE,67,3.0,7.0,98,0.00,RA,RA,0.71,0.0,WeatherDisplay:10.37,2013-03-30 21:27:00,
2013-03-30 22:32:00,48.7,48.2,29.53,ENE,63,3.0,7.0,98,0.00,RA,RA,0.71,0.0,WeatherDisplay:10.37,2013-03-30 21:32:00,
2013-03-30 22:42:00,48.7,48.2,29.53,ENE,76,3.0,6.0,98,0.00,RA,RA,0.72,0.0,WeatherDisplay:10.37,2013-03-30 21:42:00,
2013-03-30 22:47:00,48.7,48.2,29.53,ENE,72,3.0,6.0,98,0.00,RA,RA,0.72,0.0,WeatherDisplay:10.37,2013-03-30 21:47:00,
2013-03-30 22:52:00,48.7,48.2,29.53,ENE,72,3.0,6.0,98,0.00,RA,RA,0.72,0.0,WeatherDisplay:10.37,2013-03-30 21:52:00,
2013-03-30 23:02:00,48.9,48.4,29.53,ENE,71,2.0,6.0,98,0.00,CLR,CLR,0.72,0.0,WeatherDisplay:10.37,2013-03-30 22:02:00,
2013-03-30 23:12:00,48.9,48.4,29.53,East,82,2.0,6.0,98,0.00,RA,RA,0.73,0.0,WeatherDisplay:10.37,2013-03-30 22:12:00,
2013-03-30 23:22:00,48.9,48.4,29.50,East,89,3.0,6.0,98,0.00,CLR,CLR,0.73,0.0,WeatherDisplay:10.37,2013-03-30 22:22:00,
2013-03-30 23:32:00,48.9,48.4,29.50,ENE,77,3.0,7.0,98,0.00,CLR,CLR,0.73,0.0,WeatherDisplay:10.37,2013-03-30 22:32:00,
2013-03-30 23:37:00,48.9,48.4,29.50,East,80,3.0,6.0,98,0.01,RA,RA,0.73,0.0,WeatherDisplay:10.37,2013-03-30 22:37:00,
2013-03-30 23:47:00,48.9,48.4,29.50,East,81,2.0,6.0,98,0.00,CLR,CLR,0.73,0.0,WeatherDisplay:10.37,2013-03-30 22:47:00,
2013-03-30 23:52:00,48.9,48.4,29.50,ENE,76,3.0,6.0,98,0.00,CLR,CLR,0.73,0.0,WeatherDisplay:10.37,2013-03-30 22:52:00,
2013-03-30 23:57:00,48.9,48.4,29.50,ENE,70,3.0,6.0,98,0.00,CLR,CLR,0.73,0.0,WeatherDisplay:10.37,2013-03-30 22:57:00,